Time;durP1;ratioP1;P1;durP2;ratioP2;P2;SDS_P1;SDS_P2;PMS_P1;PMS_P2;Temp;Humidity;BMP_temperature;BMP_pressure;BME280_temperature;BME280_humidity;BME280_pressure;Samples;Min_cycle;Max_cycle;Signal;HPM_P1;HPM_P2
2022/07/27 00:01:30;;;;;;;2.63;1.60;;;;;;;18.17;59.51;98666.13;5027695;28;20226;-63
2022/07/27 00:03:57;;;;;;;7.33;1.77;;;;;;;18.23;59.50;98670.59;5025238;28;20324;-63
2022/07/27 00:06:25;;;;;;;2.07;1.60;;;;;;;18.24;60.31;98666.94;5026354;28;20223;-63
2022/07/27 00:08:52;;;;;;;4.13;1.83;;;;;;;18.09;60.53;98667.13;5029462;28;20212;-63
2022/07/27 00:11:19;;;;;;;1.97;1.50;;;;;;;17.97;60.99;98672.16;5011795;28;20230;-62
2022/07/27 00:13:46;;;;;;;3.13;1.50;;;;;;;17.92;61.31;98669.28;5026544;28;20221;-62
2022/07/27 00:16:13;;;;;;;2.63;1.60;;;;;;;17.88;60.92;98666.22;5026842;28;20240;-62
2022/07/27 00:18:40;;;;;;;2.60;1.70;;;;;;;17.89;60.88;98667.84;5016743;28;20233;-63
2022/07/27 00:21:07;;;;;;;2.57;1.50;;;;;;;17.93;60.71;98669.06;5024040;28;20230;-63
2022/07/27 00:23:35;;;;;;;4.73;1.50;;;;;;;17.90;61.47;98658.91;5026509;28;21113;-63
2022/07/27 00:26:02;;;;;;;2.73;1.70;;;;;;;17.89;61.13;98661.75;5024659;28;20702;-63
2022/07/27 00:28:29;;;;;;;4.77;1.87;;;;;;;17.91;60.88;98659.72;5029137;28;20221;-63
2022/07/27 00:30:56;;;;;;;2.77;1.40;;;;;;;17.85;60.99;98667.44;5027633;28;20235;-63
2022/07/27 00:33:23;;;;;;;3.27;1.50;;;;;;;17.83;61.44;98660.69;5029358;28;20223;-63
2022/07/27 00:35:49;;;;;;;3.63;1.63;;;;;;;17.86;61.83;98676.16;5027640;28;20208;-62
2022/07/27 00:38:16;;;;;;;5.03;1.63;;;;;;;17.87;60.47;98669.84;5021200;28;20238;-63
2022/07/27 00:40:44;;;;;;;1.80;1.50;;;;;;;17.89;60.76;98667.03;5026281;28;20223;-63
2022/07/27 00:43:11;;;;;;;3.53;2.10;;;;;;;17.87;61.56;98666.41;5019770;28;20648;-63
2022/07/27 00:45:38;;;;;;;1.53;1.20;;;;;;;17.93;61.82;98655.06;5022704;28;20269;-63
2022/07/27 00:48:06;;;;;;;4.00;2.03;;;;;;;17.87;61.28;98656.66;5004342;28;20203;-63
2022/07/27 00:50:35;;;;;;;1.93;1.50;;;;;;;17.89;61.69;98657.28;5027915;28;20702;-63
2022/07/27 00:53:04;;;;;;;3.10;1.80;;;;;;;17.81;61.33;98660.91;5031096;28;20195;-63
2022/07/27 00:55:32;;;;;;;2.00;1.60;;;;;;;17.78;62.56;98663.13;5025722;28;20200;-63
2022/07/27 00:58:00;;;;;;;3.27;1.60;;;;;;;17.76;62.16;98670.41;5026833;28;20613;-63
2022/07/27 01:00:27;;;;;;;5.00;1.70;;;;;;;17.73;62.31;98666.34;5021859;28;20209;-63
2022/07/27 01:02:54;;;;;;;3.60;1.70;;;;;;;17.73;61.63;98661.09;5022235;28;20198;-62
2022/07/27 01:05:21;;;;;;;2.37;1.37;;;;;;;17.79;62.07;98655.00;5022069;28;20620;-62
2022/07/27 01:07:49;;;;;;;5.10;1.87;;;;;;;17.69;62.64;98654.56;5020252;28;20267;-62
2022/07/27 01:10:17;;;;;;;3.07;1.77;;;;;;;17.61;61.86;98652.88;5023450;28;20213;-62
2022/07/27 01:12:45;;;;;;;1.80;1.50;;;;;;;17.69;62.81;98649.28;5020337;28;20654;-62
2022/07/27 01:15:13;;;;;;;1.70;1.60;;;;;;;17.65;63.18;98655.97;5019010;28;20202;-62
2022/07/27 01:17:40;;;;;;;2.70;1.60;;;;;;;17.61;62.97;98652.09;5022101;28;20195;-62
2022/07/27 01:20:08;;;;;;;4.37;1.73;;;;;;;17.59;63.06;98646.19;5031186;28;20216;-63
2022/07/27 01:22:36;;;;;;;2.27;1.67;;;;;;;17.57;63.17;98659.56;5042074;28;20195;-63
2022/07/27 01:25:03;;;;;;;2.60;1.60;;;;;;;17.54;63.66;98647.59;5041014;28;20297;-63
2022/07/27 01:27:30;;;;;;;4.37;1.80;;;;;;;17.53;63.08;98640.69;5043187;28;20306;-63
2022/07/27 01:29:57;;;;;;;2.13;1.37;;;;;;;17.52;63.66;98638.22;5042327;28;20277;-63
2022/07/27 01:32:23;;;;;;;4.20;1.43;;;;;;;17.49;63.17;98641.28;5040002;28;20196;-63
2022/07/27 01:34:50;;;;;;;3.03;1.70;;;;;;;17.43;63.59;98644.69;5042349;28;20900;-63
2022/07/27 01:37:17;;;;;;;3.40;1.50;;;;;;;17.35;63.74;98632.47;5041955;28;20206;-63
2022/07/27 01:40:04;;;;;;;3.40;1.70;;;;;;;17.24;64.52;98633.84;5041325;28;20276;-63
2022/07/27 01:42:31;;;;;;;3.27;1.50;;;;;;;17.15;64.79;98627.88;5046596;28;20391;-63
2022/07/27 01:45:16;;;;;;;4.80;1.57;;;;;;;17.09;64.66;98631.28;5043820;28;20209;-63
2022/07/27 01:47:43;;;;;;;2.63;1.70;;;;;;;17.04;64.46;98633.69;5042696;28;20596;-63
2022/07/27 01:50:11;;;;;;;6.13;1.80;;;;;;;17.01;64.88;98628.78;5044316;28;20226;-63
2022/07/27 01:52:38;;;;;;;2.90;1.40;;;;;;;16.90;64.59;98630.94;5023446;28;20192;-63
2022/07/27 01:55:08;;;;;;;3.83;1.80;;;;;;;16.81;64.96;98629.47;5025467;28;20199;-63
2022/07/27 01:57:34;;;;;;;2.60;1.60;;;;;;;16.78;64.88;98632.47;5026082;28;20210;-63
2022/07/27 02:00:01;;;;;;;2.87;1.70;;;;;;;16.68;65.08;98627.53;5005745;28;20263;-63
2022/07/27 02:02:28;;;;;;;2.50;1.57;;;;;;;16.59;65.22;98623.38;5021181;28;20213;-63
2022/07/27 02:04:54;;;;;;;2.10;1.80;;;;;;;16.49;65.59;98631.63;5026305;28;20729;-63
2022/07/27 02:07:21;;;;;;;2.50;1.80;;;;;;;16.51;66.17;98621.72;5014904;28;20205;-63
2022/07/27 02:09:48;;;;;;;3.63;2.00;;;;;;;16.44;66.30;98621.63;5023862;28;20250;-63
2022/07/27 02:15:00;;;;;;;5.23;2.13;;;;;;;16.25;66.88;98617.81;5023132;28;20850;-63
2022/07/27 02:17:27;;;;;;;2.80;1.93;;;;;;;16.13;67.66;98611.41;5022246;28;20205;-63
2022/07/27 02:19:54;;;;;;;3.20;1.87;;;;;;;16.14;68.35;98610.41;5022243;28;20189;-63
2022/07/27 02:22:20;;;;;;;3.27;2.03;;;;;;;16.01;68.28;98611.91;5024660;28;20249;-63
2022/07/27 02:24:47;;;;;;;2.73;1.70;;;;;;;15.98;68.68;98614.91;5027848;28;20247;-63
2022/07/27 02:27:15;;;;;;;2.27;2.00;;;;;;;15.89;68.90;98621.31;5025081;28;20709;-63
2022/07/27 02:29:42;;;;;;;5.00;2.37;;;;;;;15.86;68.65;98613.75;5025536;28;20257;-63
2022/07/27 02:32:10;;;;;;;3.07;1.90;;;;;;;15.76;68.76;98614.03;5006100;28;20610;-63
2022/07/27 02:34:36;;;;;;;3.27;1.90;;;;;;;15.71;69.34;98611.97;5023474;28;20194;-63
2022/07/27 02:37:03;;;;;;;4.17;2.03;;;;;;;15.68;69.44;98616.78;5025527;28;20249;-63
2022/07/27 02:39:30;;;;;;;2.60;1.80;;;;;;;15.59;69.80;98616.06;5024155;28;20659;-63
2022/07/27 02:41:57;;;;;;;5.83;2.20;;;;;;;15.52;70.23;98615.16;5028633;28;20284;-63
2022/07/27 02:44:25;;;;;;;3.70;2.30;;;;;;;15.47;70.87;98616.53;5024266;28;20194;-63
2022/07/27 02:46:51;;;;;;;2.53;2.20;;;;;;;15.44;71.29;98605.53;5037189;28;20198;-63
2022/07/27 02:49:18;;;;;;;2.77;2.10;;;;;;;15.38;71.86;98609.75;5024419;28;20193;-63
2022/07/27 02:51:48;;;;;;;3.67;2.17;;;;;;;15.34;72.09;98619.00;5038876;28;21075;-63
2022/07/27 02:54:15;;;;;;;4.83;2.50;;;;;;;15.39;72.79;98616.63;5027154;28;20270;-63
2022/07/27 02:56:41;;;;;;;3.33;2.33;;;;;;;15.27;73.06;98618.09;5039861;28;20196;-63
2022/07/27 02:59:08;;;;;;;4.90;2.67;;;;;;;15.21;73.30;98617.00;5029377;28;20189;-63
2022/07/27 03:01:36;;;;;;;3.20;2.67;;;;;;;15.32;73.14;98616.56;5031813;28;20625;-63
2022/07/27 03:04:03;;;;;;;3.40;2.30;;;;;;;15.33;72.91;98618.19;5031168;28;20201;-63
2022/07/27 03:06:48;;;;;;;4.17;2.73;;;;;;;15.39;73.82;98614.00;5028688;28;20228;-63
2022/07/27 03:09:15;;;;;;;7.97;3.17;;;;;;;15.30;74.23;98615.91;5028631;28;20204;-63
2022/07/27 03:11:42;;;;;;;5.13;2.93;;;;;;;15.27;75.02;98621.53;5020761;28;20709;-63
2022/07/27 03:14:09;;;;;;;3.90;3.30;;;;;;;15.17;75.51;98618.38;5022405;28;20198;-63
2022/07/27 03:16:37;;;;;;;3.97;3.37;;;;;;;15.13;75.99;98614.47;5023682;28;20201;-63
2022/07/27 03:19:04;;;;;;;5.77;3.20;;;;;;;15.12;75.92;98624.16;5029955;28;20197;-63
2022/07/27 03:21:31;;;;;;;5.17;3.47;;;;;;;15.11;76.32;98619.09;5013504;28;20228;-63
2022/07/27 03:23:57;;;;;;;4.60;3.43;;;;;;;15.11;76.53;98621.72;5023239;28;20789;-63
2022/07/27 03:26:24;;;;;;;6.50;3.37;;;;;;;15.15;76.69;98620.34;5024739;28;20204;-63
2022/07/27 03:28:51;;;;;;;4.07;2.90;;;;;;;15.15;76.62;98625.63;5022444;28;20202;-63
2022/07/27 03:31:18;;;;;;;4.50;3.10;;;;;;;15.14;76.82;98616.91;5023109;28;20236;-63
2022/07/27 03:33:46;;;;;;;3.70;3.20;;;;;;;15.08;76.80;98620.25;5035809;28;20602;-63
2022/07/27 03:36:13;;;;;;;4.95;3.80;;;;;;;15.13;77.49;98624.97;5015285;28;21000;-63
2022/07/27 03:38:39;;;;;;;3.93;3.33;;;;;;;15.12;77.98;98626.78;5034535;28;20544;-63
2022/07/27 03:41:06;;;;;;;6.93;3.70;;;;;;;15.07;78.64;98623.88;5032895;28;20215;-63
2022/07/27 03:43:33;;;;;;;5.63;3.90;;;;;;;15.09;78.72;98624.50;5026254;28;20199;-63
2022/07/27 03:46:00;;;;;;;6.70;3.70;;;;;;;15.03;78.75;98622.59;5035826;28;20207;-63
2022/07/27 03:48:27;;;;;;;4.97;3.53;;;;;;;14.96;79.57;98624.31;5023171;28;20213;-63
2022/07/27 03:50:55;;;;;;;5.47;3.83;;;;;;;14.89;79.56;98619.75;5025406;28;20764;-63
2022/07/27 03:53:22;;;;;;;6.30;3.27;;;;;;;14.88;79.63;98623.38;5021400;28;20193;-63
2022/07/27 03:55:49;;;;;;;5.80;3.50;;;;;;;14.87;79.67;98620.94;5006308;28;20259;-63
2022/07/27 03:58:16;;;;;;;6.00;3.70;;;;;;;14.83;79.16;98624.94;5012843;28;20202;-63
2022/07/27 04:00:43;;;;;;;7.23;3.57;;;;;;;14.86;80.38;98624.56;5012958;28;20276;-63
2022/07/27 04:03:10;;;;;;;4.37;3.47;;;;;;;14.86;80.94;98625.38;5012682;28;20243;-63
2022/07/27 04:05:37;;;;;;;7.83;3.80;;;;;;;14.83;80.68;98617.88;5005974;28;20196;-63
2022/07/27 04:08:06;;;;;;;6.53;4.37;;;;;;;14.77;82.13;98618.59;5018330;28;20232;-63
2022/07/27 04:10:32;;;;;;;6.37;3.93;;;;;;;14.74;82.74;98613.69;5024598;28;20224;-63
2022/07/27 04:12:59;;;;;;;4.80;3.70;;;;;;;14.74;82.75;98611.06;5021433;28;20268;-63
2022/07/27 04:15:27;;;;;;;4.20;3.80;;;;;;;14.71;82.90;98616.66;5024948;28;20243;-63
2022/07/27 04:17:54;;;;;;;7.40;4.17;;;;;;;14.72;83.36;98618.31;5027300;28;20216;-63
2022/07/27 04:20:21;;;;;;;5.37;4.07;;;;;;;14.75;83.40;98617.94;5025585;28;20580;-63
2022/07/27 04:22:48;;;;;;;6.87;4.87;;;;;;;14.73;83.55;98610.22;5032019;28;20195;-63
2022/07/27 04:25:16;;;;;;;5.97;3.87;;;;;;;14.73;83.33;98612.06;5027369;28;20188;-63
2022/07/27 04:27:43;;;;;;;6.00;4.20;;;;;;;14.78;83.77;98611.50;5033129;28;20270;-63
2022/07/27 04:30:10;;;;;;;5.17;3.93;;;;;;;14.83;83.79;98615.25;5029212;28;20704;-63
2022/07/27 04:32:37;;;;;;;4.70;4.17;;;;;;;14.90;83.99;98613.50;5029663;28;20200;-63
2022/07/27 04:35:05;;;;;;;6.17;3.87;;;;;;;14.92;83.49;98613.34;5032143;28;20203;-63
2022/07/27 04:37:32;;;;;;;4.37;3.80;;;;;;;14.98;84.07;98617.06;5015219;28;20283;-63
2022/07/27 04:39:59;;;;;;;4.60;3.87;;;;;;;15.09;83.87;98616.63;5032546;28;20641;-63
2022/07/27 04:42:28;;;;;;;4.67;3.83;;;;;;;15.18;84.12;98618.16;5024261;28;20196;-63
2022/07/27 04:44:55;;;;;;;5.83;4.27;;;;;;;15.33;84.21;98605.03;5036580;28;20767;-63
2022/07/27 04:47:22;;;;;;;5.53;4.10;;;;;;;15.45;83.39;98607.19;5024660;28;20213;-63
2022/07/27 04:49:49;;;;;;;6.87;4.10;;;;;;;15.52;83.13;98617.81;5032044;28;20307;-63
2022/07/27 04:52:16;;;;;;;4.67;3.83;;;;;;;15.59;82.22;98616.88;5026607;28;20251;-63
2022/07/27 04:54:43;;;;;;;5.60;4.10;;;;;;;15.69;82.06;98623.66;5032682;28;20195;-63
2022/07/27 04:57:10;;;;;;;7.53;3.67;;;;;;;15.79;82.09;98616.31;5015320;28;20243;-63
2022/07/27 04:59:38;;;;;;;5.67;4.00;;;;;;;15.91;81.75;98614.84;5039388;28;20186;-63
2022/07/27 05:02:05;;;;;;;4.80;3.70;;;;;;;16.03;81.50;98622.28;5031306;28;20198;-63
2022/07/27 05:04:32;;;;;;;4.23;3.63;;;;;;;16.14;80.33;98631.47;5025816;28;20269;-63
2022/07/27 05:06:58;;;;;;;5.73;3.67;;;;;;;16.22;80.45;98626.09;5015348;28;20221;-63
2022/07/27 05:09:25;;;;;;;4.83;3.67;;;;;;;16.37;79.72;98632.13;5024916;28;20206;-63
2022/07/27 05:11:52;;;;;;;4.40;3.60;;;;;;;16.52;78.39;98629.41;5026890;28;20217;-63
2022/07/27 05:14:19;;;;;;;4.57;3.67;;;;;;;16.75;78.06;98636.31;5023364;28;20198;-63
2022/07/27 05:16:47;;;;;;;5.00;3.43;;;;;;;16.99;76.99;98641.34;5034859;28;20585;-63
2022/07/27 05:19:14;;;;;;;4.17;3.33;;;;;;;17.19;76.42;98636.25;5026416;28;20723;-63
2022/07/27 05:21:41;;;;;;;5.53;3.33;;;;;;;17.40;75.92;98640.59;5013942;28;20224;-63
2022/07/27 05:24:08;;;;;;;7.03;3.60;;;;;;;17.65;74.16;98632.22;5028917;28;20191;-63
2022/07/27 05:26:35;;;;;;;4.57;3.67;;;;;;;17.77;74.73;98640.38;5031264;28;20286;-63
2022/07/27 05:29:02;;;;;;;3.20;3.00;;;;;;;17.93;72.68;98640.03;5031258;28;20682;-63
2022/07/27 05:31:29;;;;;;;8.83;3.90;;;;;;;18.09;70.75;98644.16;5023312;28;20227;-63
2022/07/27 05:33:57;;;;;;;4.70;3.23;;;;;;;18.34;68.64;98651.53;5019506;28;20190;-63
2022/07/27 05:36:24;;;;;;;4.00;3.17;;;;;;;18.44;68.11;98656.44;5023346;28;20664;-63
2022/07/27 05:38:51;;;;;;;5.80;3.27;;;;;;;18.44;67.66;98656.44;5034226;28;20804;-63
2022/07/27 05:41:22;;;;;;;4.93;3.10;;;;;;;18.58;67.80;98655.41;5022540;28;20205;-63
2022/07/27 05:43:49;;;;;;;3.50;3.10;;;;;;;18.70;66.75;98660.94;5011633;28;20197;-63
2022/07/27 05:46:16;;;;;;;3.83;3.00;;;;;;;18.78;65.65;98653.81;5011580;28;20193;-63
2022/07/27 05:48:43;;;;;;;4.50;3.30;;;;;;;18.91;65.13;98659.09;5011499;28;20230;-63
2022/07/27 05:51:11;;;;;;;6.80;3.03;;;;;;;18.98;64.95;98664.41;5011484;28;20223;-63
2022/07/27 05:53:38;;;;;;;4.03;3.13;;;;;;;19.03;64.42;98657.50;5011682;28;20276;-63
2022/07/27 05:56:24;;;;;;;5.83;3.57;;;;;;;19.03;65.20;98661.97;5025575;28;20580;-63
2022/07/27 05:58:51;;;;;;;4.77;3.13;;;;;;;19.08;64.39;98661.34;5024258;28;20618;-63
2022/07/27 06:01:18;;;;;;;3.70;3.07;;;;;;;19.29;63.91;98658.44;5026998;28;20215;-63
2022/07/27 06:03:45;;;;;;;2.97;2.77;;;;;;;19.56;62.58;98658.38;5028162;28;20227;-63
2022/07/27 06:09:16;;;;;;;3.80;3.37;;;;;;;19.64;62.45;98667.13;5024453;28;20272;-63
2022/07/27 06:11:43;;;;;;;4.43;3.47;;;;;;;19.44;63.08;98657.41;5033344;28;20242;-63
2022/07/27 06:14:10;;;;;;;6.17;3.00;;;;;;;19.56;63.15;98660.25;5011575;28;20201;-63
2022/07/27 06:16:37;;;;;;;5.07;3.27;;;;;;;19.79;62.11;98665.03;5026688;28;20686;-63
2022/07/27 06:19:04;;;;;;;6.43;3.43;;;;;;;20.04;61.32;98661.69;5019539;28;20195;-63
2022/07/27 06:21:33;;;;;;;5.27;3.20;;;;;;;20.06;61.14;98659.66;5028432;28;20213;-63
2022/07/27 06:23:59;;;;;;;4.97;3.10;;;;;;;20.00;61.70;98655.19;5021691;28;20205;-63
2022/07/27 06:26:26;;;;;;;3.80;3.10;;;;;;;20.00;61.06;98655.19;5030418;28;20205;-63
2022/07/27 06:28:57;;;;;;;3.17;2.80;;;;;;;20.27;60.20;98655.03;5031060;28;20216;-63
2022/07/27 06:31:25;;;;;;;7.20;2.90;;;;;;;20.25;60.62;98654.44;5007476;28;20271;-63
2022/07/27 06:33:53;;;;;;;5.30;3.00;;;;;;;20.47;59.65;98646.97;5035147;28;20200;-63
2022/07/27 06:36:20;;;;;;;4.33;3.10;;;;;;;20.47;59.79;98663.66;5034078;28;20206;-63
2022/07/27 06:38:49;;;;;;;3.67;3.33;;;;;;;20.50;59.79;98671.19;5013537;28;20200;-63
2022/07/27 06:41:15;;;;;;;3.20;2.70;;;;;;;20.59;59.11;98665.63;5025099;28;20242;-63
2022/07/27 06:43:42;;;;;;;3.87;2.80;;;;;;;20.39;59.74;98671.06;5030019;28;20191;-63
2022/07/27 06:46:11;;;;;;;5.50;3.40;;;;;;;20.48;59.14;98675.09;5029345;28;20202;-63
2022/07/27 06:48:39;;;;;;;6.90;3.30;;;;;;;20.15;60.43;98678.75;5020851;28;20716;-63
2022/07/27 06:51:06;;;;;;;4.77;3.20;;;;;;;20.21;59.72;98681.34;5030545;28;20217;-63
2022/07/27 06:53:34;;;;;;;3.83;3.20;;;;;;;19.94;60.87;98683.34;5028539;28;20197;-63
2022/07/27 06:56:02;;;;;;;4.07;3.40;;;;;;;20.08;60.70;98677.97;5028708;28;20208;-63
2022/07/27 06:58:30;;;;;;;4.77;3.40;;;;;;;20.11;60.46;98681.03;5026852;28;20627;-63
2022/07/27 07:00:58;;;;;;;4.10;3.30;;;;;;;20.13;60.33;98683.44;5031280;28;20221;-63
2022/07/27 07:03:25;;;;;;;3.83;3.47;;;;;;;20.37;58.96;98683.72;5026325;28;20196;-63
2022/07/27 07:05:52;;;;;;;4.87;3.53;;;;;;;20.45;58.85;98681.63;5025048;28;20248;-63
2022/07/27 07:08:20;;;;;;;6.00;3.60;;;;;;;20.64;58.14;98684.38;5027222;28;20223;-63
2022/07/27 07:10:47;;;;;;;5.03;3.40;;;;;;;20.39;59.00;98690.44;5009092;28;20212;-63
2022/07/27 07:13:16;;;;;;;4.13;3.13;;;;;;;20.58;58.50;98687.88;5007709;28;20229;-63
2022/07/27 07:15:43;;;;;;;4.10;3.20;;;;;;;20.65;57.97;98686.81;5023723;28;20647;-63
2022/07/27 07:18:11;;;;;;;4.23;3.33;;;;;;;20.88;57.37;98681.97;5015119;28;20663;-63
2022/07/27 07:20:39;;;;;;;5.27;3.27;;;;;;;20.91;57.65;98684.19;5039236;28;20245;-63
2022/07/27 07:23:06;;;;;;;8.57;3.67;;;;;;;20.71;57.84;98682.47;5025727;28;20233;-63
2022/07/27 07:25:34;;;;;;;8.77;3.70;;;;;;;21.10;56.76;98685.03;5027023;28;21219;-63
2022/07/27 07:28:01;;;;;;;4.73;3.00;;;;;;;20.98;57.09;98684.13;5010180;28;20212;-63
2022/07/27 07:30:30;;;;;;;3.37;2.90;;;;;;;20.88;57.14;98676.66;5026868;28;20276;-63
2022/07/27 07:32:57;;;;;;;3.53;3.13;;;;;;;21.01;57.16;98684.53;5029200;28;20250;-63
2022/07/27 07:35:23;;;;;;;3.20;2.73;;;;;;;21.21;56.48;98683.50;5027552;28;20435;-63
2022/07/27 07:37:50;;;;;;;3.23;2.93;;;;;;;20.96;56.50;98680.88;5036159;28;20468;-63
2022/07/27 07:40:17;;;;;;;5.47;3.23;;;;;;;20.99;56.91;98678.63;5024404;28;20211;-63
2022/07/27 07:42:52;;;;;;;3.57;3.27;;;;;;;21.04;56.85;98675.28;5036126;28;20197;-63
2022/07/27 07:45:20;;;;;;;4.93;3.20;;;;;;;20.78;57.24;98670.00;5024229;28;20189;-63
2022/07/27 07:47:48;;;;;;;7.33;3.60;;;;;;;20.45;58.59;98665.72;5026287;28;20214;-63
2022/07/27 07:50:15;;;;;;;4.27;3.23;;;;;;;20.42;59.04;98668.81;5026022;28;20210;-63
2022/07/27 07:52:42;;;;;;;4.57;3.53;;;;;;;20.52;58.97;98668.34;5031835;28;20202;-63
2022/07/27 07:55:10;;;;;;;4.13;2.80;;;;;;;20.57;60.23;98668.50;5026570;28;20252;-63
2022/07/27 07:57:37;;;;;;;4.93;2.73;;;;;;;20.77;59.17;98667.53;5024116;28;20206;-63
2022/07/27 08:00:05;;;;;;;3.33;2.60;;;;;;;20.17;60.71;98676.69;5035560;28;20280;-62
2022/07/27 08:02:46;;;;;;;4.53;2.77;;;;;;;20.04;61.52;98673.09;5035715;28;20204;-62
2022/07/27 08:05:14;;;;;;;7.53;3.50;;;;;;;19.83;61.81;98678.66;5043821;28;20185;-63
2022/07/27 08:07:41;;;;;;;7.53;3.13;;;;;;;19.91;61.53;98683.75;5042736;28;20233;-63
2022/07/27 08:10:27;;;;;;;5.40;3.20;;;;;;;19.89;61.91;98681.31;5037723;28;20725;-63
2022/07/27 08:12:56;;;;;;;3.30;2.70;;;;;;;19.93;61.82;98679.06;5039561;28;20187;-63
2022/07/27 08:15:24;;;;;;;3.60;3.20;;;;;;;20.04;61.71;98689.00;5018163;28;20269;-63
2022/07/27 08:17:51;;;;;;;6.13;3.50;;;;;;;20.22;60.78;98690.13;5040472;28;20188;-63
2022/07/27 08:20:21;;;;;;;7.97;3.23;;;;;;;20.39;60.16;98687.78;5040595;28;20208;-63
2022/07/27 08:22:48;;;;;;;5.20;3.63;;;;;;;20.36;59.85;98690.84;5028906;28;20584;-63
2022/07/27 08:25:15;;;;;;;4.27;3.60;;;;;;;20.62;59.42;98692.53;5023148;28;20186;-63
2022/07/27 08:27:41;;;;;;;5.00;3.27;;;;;;;20.65;59.06;98683.34;5023442;28;20201;-63
2022/07/27 08:30:10;;;;;;;4.87;3.67;;;;;;;20.67;58.68;98680.47;5021315;28;20235;-63
2022/07/27 08:32:48;;;;;;;5.97;3.37;;;;;;;20.90;58.25;98682.56;5024831;28;20640;-61
2022/07/27 08:35:16;;;;;;;4.73;3.40;;;;;;;20.94;57.77;98684.56;5027287;28;20191;-63
2022/07/27 08:37:45;;;;;;;3.93;3.47;;;;;;;20.92;57.77;98689.28;5023843;28;20220;-62
2022/07/27 08:40:12;;;;;;;5.20;3.37;;;;;;;20.98;57.31;98684.94;5025224;28;20215;-62
2022/07/27 08:42:41;;;;;;;4.83;3.30;;;;;;;21.09;57.34;98683.41;5022959;28;20200;-62
2022/07/27 08:45:10;;;;;;;3.77;3.40;;;;;;;21.21;56.64;98688.81;5033057;28;20179;-62
2022/07/27 08:47:39;;;;;;;4.40;3.77;;;;;;;21.37;56.35;98688.25;5025464;28;20218;-62
2022/07/27 08:50:21;;;;;;;5.87;3.70;;;;;;;21.44;56.51;98687.38;5022995;28;20236;-62
2022/07/27 08:53:10;;;;;;;4.00;3.17;;;;;;;21.66;55.68;98685.94;5025450;28;20224;-60
2022/07/27 08:55:39;;;;;;;5.23;3.33;;;;;;;21.77;55.33;98686.22;5019905;28;20199;-61
2022/07/27 08:58:07;;;;;;;4.83;3.27;;;;;;;22.04;54.47;98691.22;5028988;28;20204;-61
2022/07/27 09:00:34;;;;;;;4.27;3.53;;;;;;;22.20;52.47;98685.28;5020517;28;20226;-61
2022/07/27 09:03:02;;;;;;;7.83;3.47;;;;;;;22.34;52.53;98677.91;5021289;28;20221;-61
2022/07/27 09:05:30;;;;;;;6.97;3.47;;;;;;;22.53;52.84;98691.19;5005518;28;20206;-61
2022/07/27 09:08:20;;;;;;;4.43;3.37;;;;;;;22.76;51.88;98695.75;5023879;28;20313;-61
2022/07/27 09:11:13;;;;;;;6.10;3.57;;;;;;;22.99;51.85;98692.28;5020805;28;20224;-61
2022/07/27 09:13:41;;;;;;;4.77;3.33;;;;;;;23.14;50.10;98696.34;5020465;28;20539;-61
2022/07/27 09:16:10;;;;;;;4.40;3.10;;;;;;;23.21;50.78;98690.91;5022769;28;20230;-60
2022/07/27 09:18:40;;;;;;;5.53;3.30;;;;;;;23.15;49.89;98697.97;5004051;28;20610;-60
2022/07/27 09:21:09;;;;;;;4.30;3.50;;;;;;;23.22;50.35;98688.00;5020252;28;20220;-61
2022/07/27 09:23:37;;;;;;;4.37;3.30;;;;;;;23.14;50.16;98691.84;5021176;28;20227;-58
2022/07/27 09:26:15;;;;;;;3.80;3.13;;;;;;;23.42;50.30;98692.19;5023028;28;20188;-59
2022/07/27 09:28:42;;;;;;;4.87;3.00;;;;;;;23.69;48.51;98683.69;5022288;28;20204;-59
2022/07/27 09:31:11;;;;;;;4.93;3.50;;;;;;;23.70;48.56;98694.09;5019988;28;20228;-61
2022/07/27 09:33:42;;;;;;;6.27;3.20;;;;;;;23.91;48.30;98694.53;5021528;28;20232;-61
2022/07/27 09:36:09;;;;;;;4.80;3.00;;;;;;;23.88;48.99;98687.78;5022962;28;20255;-61
2022/07/27 09:38:37;;;;;;;5.03;3.20;;;;;;;23.52;48.49;98696.91;5003400;28;20600;-61
2022/07/27 09:41:06;;;;;;;4.63;2.80;;;;;;;23.32;49.16;98694.63;5020551;28;20235;-59
2022/07/27 09:43:45;;;;;;;4.03;3.07;;;;;;;22.97;49.25;98699.69;5011367;28;20192;-61
2022/07/27 09:46:12;;;;;;;3.90;2.90;;;;;;;22.80;51.56;98696.91;5019589;28;20209;-61
2022/07/27 09:48:38;;;;;;;3.83;3.53;;;;;;;22.70;50.96;98686.84;5002908;28;20279;-61
2022/07/27 09:51:07;;;;;;;4.20;2.90;;;;;;;22.85;51.70;98688.22;5021307;28;20286;-61
2022/07/27 09:53:37;;;;;;;3.33;2.40;;;;;;;23.14;50.81;98694.50;5024030;28;20227;-61
2022/07/27 09:56:06;;;;;;;3.27;2.60;;;;;;;22.78;51.42;98701.63;5020323;28;20282;-61
2022/07/27 09:58:45;;;;;;;6.90;2.60;;;;;;;22.72;51.29;98701.75;5022566;28;20205;-61
2022/07/27 10:01:13;;;;;;;4.13;3.00;;;;;;;22.47;50.74;98705.41;5025497;28;20222;-61
2022/07/27 10:03:41;;;;;;;5.73;2.80;;;;;;;22.22;51.70;98704.47;5023145;28;20193;-61
2022/07/27 10:06:09;;;;;;;5.30;2.70;;;;;;;22.02;52.73;98706.56;5024906;28;20196;-61
2022/07/27 10:08:38;;;;;;;4.53;2.70;;;;;;;22.05;51.99;98706.13;5026303;28;20205;-61
2022/07/27 10:11:05;;;;;;;3.70;2.93;;;;;;;22.36;50.89;98704.28;5024942;28;20531;-61
2022/07/27 10:13:33;;;;;;;5.30;2.83;;;;;;;22.38;50.35;98708.34;5025587;28;20213;-61
2022/07/27 10:16:01;;;;;;;3.70;2.80;;;;;;;22.78;51.00;98708.81;5023586;28;20689;-61
2022/07/27 10:18:38;;;;;;;3.03;2.70;;;;;;;23.02;48.91;98719.47;5026982;28;20256;-61
2022/07/27 10:21:08;;;;;;;4.17;3.07;;;;;;;23.13;49.17;98702.72;5023626;28;20221;-61
2022/07/27 10:23:37;;;;;;;5.33;2.67;;;;;;;23.03;48.65;98711.28;5023511;28;20205;-61
2022/07/27 10:26:19;;;;;;;6.87;2.50;;;;;;;23.65;47.60;98715.31;5025909;28;20256;-61
2022/07/27 10:28:53;;;;;;;4.27;2.80;;;;;;;23.97;47.53;98706.91;5025534;28;20298;-61
2022/07/27 10:31:22;;;;;;;2.60;2.20;;;;;;;23.76;47.04;98716.34;5024764;28;20240;-61
2022/07/27 10:33:50;;;;;;;3.30;2.40;;;;;;;23.59;47.13;98705.59;5022883;28;20207;-61
2022/07/27 10:36:39;;;;;;;5.50;2.60;;;;;;;23.72;46.59;98705.34;5024652;28;20188;-61
2022/07/27 10:39:08;;;;;;;5.43;2.07;;;;;;;23.89;46.95;98700.06;5024400;28;20201;-61
2022/07/27 10:41:38;;;;;;;3.63;2.10;;;;;;;23.97;46.61;98704.25;5022186;28;20244;-61
2022/07/27 10:44:28;;;;;;;4.50;2.13;;;;;;;23.84;46.44;98700.00;5024399;28;20779;-62
2022/07/27 10:46:57;;;;;;;4.57;2.30;;;;;;;23.46;47.70;98708.50;5007177;28;20294;-62
2022/07/27 10:49:25;;;;;;;3.03;2.03;;;;;;;23.32;48.46;98714.06;5024390;28;20609;-62
2022/07/27 10:51:53;;;;;;;4.67;2.10;;;;;;;23.19;48.52;98704.44;5026306;28;20251;-62
2022/07/27 10:54:24;;;;;;;5.33;2.57;;;;;;;23.00;48.12;98709.06;5013021;28;20205;-62
2022/07/27 10:56:52;;;;;;;3.67;2.20;;;;;;;22.91;49.18;98707.78;5014304;28;20196;-62
2022/07/27 10:59:50;;;;;;;3.77;2.17;;;;;;;22.95;48.93;98703.63;5023989;28;20715;-62
2022/07/27 11:02:18;;;;;;;4.90;2.23;;;;;;;23.21;48.92;98709.56;5022828;28;20202;-62
2022/07/27 11:04:48;;;;;;;3.33;1.80;;;;;;;23.26;48.68;98699.06;5023232;28;20231;-62
2022/07/27 11:07:17;;;;;;;5.90;1.90;;;;;;;23.34;48.51;98706.66;5025058;28;20190;-62
2022/07/27 11:09:47;;;;;;;4.33;1.70;;;;;;;23.53;47.72;98707.34;5025776;28;20626;-62
2022/07/27 11:12:14;;;;;;;3.27;1.50;;;;;;;23.76;47.04;98716.34;5021898;28;20543;-62
2022/07/27 11:14:47;;;;;;;6.07;2.57;;;;;;;23.73;46.78;98714.16;5024182;28;20203;-62
2022/07/27 11:17:14;;;;;;;4.80;2.10;;;;;;;23.74;46.89;98721.91;5025011;28;20637;-62
2022/07/27 11:19:41;;;;;;;2.90;1.90;;;;;;;24.05;46.09;98707.59;5022687;28;20192;-62
2022/07/27 11:22:08;;;;;;;3.47;2.00;;;;;;;24.35;44.76;98710.03;5022988;28;20318;-62
2022/07/27 11:24:35;;;;;;;3.87;2.00;;;;;;;24.28;44.93;98699.53;5024908;28;20195;-62
2022/07/27 11:27:04;;;;;;;4.17;1.83;;;;;;;24.51;45.15;98699.63;5023144;28;20201;-62
2022/07/27 11:29:35;;;;;;;4.03;2.30;;;;;;;24.02;44.96;98704.38;5022093;28;20593;-62
2022/07/27 11:32:03;;;;;;;2.50;1.70;;;;;;;24.37;44.39;98704.47;5022465;28;20200;-62
2022/07/27 11:34:31;;;;;;;3.42;1.90;;;;;;;24.39;44.60;98697.00;5022505;28;20431;-62
2022/07/27 11:37:00;;;;;;;2.87;2.20;;;;;;;24.02;45.14;98692.88;5024034;28;20189;-62
2022/07/27 11:39:29;;;;;;;3.83;2.07;;;;;;;24.32;44.39;98697.16;5023074;28;20287;-62
2022/07/27 11:41:58;;;;;;;6.17;1.83;;;;;;;24.46;44.00;98693.16;5011729;28;20223;-62
2022/07/27 11:44:26;;;;;;;2.40;1.77;;;;;;;24.91;42.74;98691.50;5022264;28;20670;-62
2022/07/27 11:46:54;;;;;;;2.50;1.97;;;;;;;24.74;41.83;98688.03;5027918;28;20186;-62